Powhatan, West Virginia
Current Conditions -  °F | °C
As of 8:59 PM on Wednesday 26 Nov 2014 (Local Time) from KBLF Reporting Station
Moderate Fog Moderate Fog  
Wind Chill: 32°   Ceiling: 200
Heat Index: 32°   Visibility: 0.5mi
Dew Point: 30°   Wind: 0mph
Humidity: 92%   Direction: NA
Pressure: 29.97"   Gusts: NA
Location:  37.4°N, 81.42°W
Report Text: KBLF 270159Z AUTO 00000KT 1/2SM FG BKN002 BKN050 00/M01 A2997 RMK AO2 T00001011
Loading
Personal Weather Stations






























Interactive Weather Map New forecast layout! Learn more

10-Day Weather Forecast

Advertisements
Track Severe Weather on mobile